sensor_id;sensor_type;location;lat;lon;timestamp;pressure;altitude;pressure_sealevel;temperature;humidity
32083;BME280;18597;48.328;7.932;2023-07-31T00:01:47;99654.28;;;12.71;100.00
32083;BME280;18597;48.328;7.932;2023-07-31T00:04:12;99659.38;;;12.55;100.00
32083;BME280;18597;48.328;7.932;2023-07-31T00:06:38;99651.88;;;12.59;100.00
32083;BME280;18597;48.328;7.932;2023-07-31T00:09:04;99653.28;;;12.72;100.00
32083;BME280;18597;48.328;7.932;2023-07-31T00:11:30;99652.81;;;12.87;100.00
32083;BME280;18597;48.328;7.932;2023-07-31T00:13:55;99646.63;;;12.86;100.00
32083;BME280;18597;48.328;7.932;2023-07-31T00:16:21;99642.94;;;12.87;100.00
32083;BME280;18597;48.328;7.932;2023-07-31T00:18:47;99643.50;;;12.81;100.00
32083;BME280;18597;48.328;7.932;2023-07-31T00:21:13;99651.75;;;12.70;100.00
32083;BME280;18597;48.328;7.932;2023-07-31T00:23:39;99652.56;;;12.61;100.00
32083;BME280;18597;48.328;7.932;2023-07-31T00:26:04;99649.06;;;12.50;100.00
32083;BME280;18597;48.328;7.932;2023-07-31T00:28:30;99656.25;;;12.60;100.00
32083;BME280;18597;48.328;7.932;2023-07-31T00:30:56;99654.31;;;12.42;100.00
32083;BME280;18597;48.328;7.932;2023-07-31T00:33:22;99665.75;;;12.35;100.00
32083;BME280;18597;48.328;7.932;2023-07-31T00:35:48;99661.94;;;12.28;100.00
32083;BME280;18597;48.328;7.932;2023-07-31T00:38:14;99646.56;;;12.49;100.00
32083;BME280;18597;48.328;7.932;2023-07-31T00:40:40;99641.59;;;12.44;100.00
32083;BME280;18597;48.328;7.932;2023-07-31T00:43:06;99635.97;;;12.47;100.00
32083;BME280;18597;48.328;7.932;2023-07-31T00:45:32;99630.19;;;12.42;100.00
32083;BME280;18597;48.328;7.932;2023-07-31T00:47:58;99635.94;;;12.67;100.00
32083;BME280;18597;48.328;7.932;2023-07-31T00:50:25;99634.66;;;12.61;100.00
32083;BME280;18597;48.328;7.932;2023-07-31T00:52:51;99630.47;;;12.49;100.00
32083;BME280;18597;48.328;7.932;2023-07-31T00:55:17;99632.06;;;12.32;100.00
32083;BME280;18597;48.328;7.932;2023-07-31T00:57:45;99624.00;;;12.32;100.00
32083;BME280;18597;48.328;7.932;2023-07-31T01:00:11;99630.94;;;12.25;100.00
32083;BME280;18597;48.328;7.932;2023-07-31T01:02:37;99625.44;;;12.17;100.00
32083;BME280;18597;48.328;7.932;2023-07-31T01:05:04;99618.81;;;12.11;100.00
32083;BME280;18597;48.328;7.932;2023-07-31T01:07:39;99619.06;;;12.28;100.00
32083;BME280;18597;48.328;7.932;2023-07-31T01:10:29;99623.28;;;12.30;100.00
32083;BME280;18597;48.328;7.932;2023-07-31T01:12:57;99617.66;;;12.23;100.00
32083;BME280;18597;48.328;7.932;2023-07-31T01:15:23;99611.59;;;12.12;100.00
32083;BME280;18597;48.328;7.932;2023-07-31T01:17:49;99611.47;;;12.13;100.00
32083;BME280;18597;48.328;7.932;2023-07-31T01:20:21;99618.50;;;12.05;100.00
32083;BME280;18597;48.328;7.932;2023-07-31T01:26:19;99611.72;;;12.01;100.00
32083;BME280;18597;48.328;7.932;2023-07-31T01:28:58;99617.41;;;12.17;100.00
32083;BME280;18597;48.328;7.932;2023-07-31T01:31:26;99614.41;;;12.01;100.00
32083;BME280;18597;48.328;7.932;2023-07-31T01:33:57;99612.16;;;12.15;100.00
32083;BME280;18597;48.328;7.932;2023-07-31T01:36:25;99613.00;;;12.16;100.00
32083;BME280;18597;48.328;7.932;2023-07-31T01:38:51;99607.94;;;12.03;100.00
32083;BME280;18597;48.328;7.932;2023-07-31T01:41:18;99611.59;;;12.12;100.00
32083;BME280;18597;48.328;7.932;2023-07-31T01:43:46;99606.69;;;12.17;100.00
32083;BME280;18597;48.328;7.932;2023-07-31T01:46:11;99603.69;;;12.39;100.00
32083;BME280;18597;48.328;7.932;2023-07-31T01:48:37;99603.00;;;12.08;100.00
32083;BME280;18597;48.328;7.932;2023-07-31T01:51:03;99605.25;;;11.93;100.00
32083;BME280;18597;48.328;7.932;2023-07-31T01:53:31;99599.34;;;11.90;100.00
32083;BME280;18597;48.328;7.932;2023-07-31T01:55:57;99585.66;;;11.83;100.00
32083;BME280;18597;48.328;7.932;2023-07-31T01:58:23;99579.06;;;11.87;100.00
32083;BME280;18597;48.328;7.932;2023-07-31T02:00:48;99575.25;;;11.80;100.00
32083;BME280;18597;48.328;7.932;2023-07-31T02:03:14;99579.34;;;11.94;100.00
32083;BME280;18597;48.328;7.932;2023-07-31T02:05:48;99571.16;;;11.86;100.00
32083;BME280;18597;48.328;7.932;2023-07-31T02:08:15;99571.16;;;11.86;100.00
32083;BME280;18597;48.328;7.932;2023-07-31T02:10:41;99573.81;;;11.86;100.00
32083;BME280;18597;48.328;7.932;2023-07-31T02:13:06;99577.38;;;11.96;100.00
32083;BME280;18597;48.328;7.932;2023-07-31T02:15:34;99571.47;;;12.02;100.00
32083;BME280;18597;48.328;7.932;2023-07-31T02:18:00;99580.75;;;11.98;100.00
32083;BME280;18597;48.328;7.932;2023-07-31T02:20:26;99565.09;;;11.93;100.00
32083;BME280;18597;48.328;7.932;2023-07-31T02:22:52;99565.69;;;11.87;100.00
32083;BME280;18597;48.328;7.932;2023-07-31T02:25:17;99554.81;;;11.89;100.00
32083;BME280;18597;48.328;7.932;2023-07-31T02:27:43;99566.09;;;11.92;100.00
32083;BME280;18597;48.328;7.932;2023-07-31T02:30:10;99566.69;;;11.86;100.00
32083;BME280;18597;48.328;7.932;2023-07-31T02:32:36;99565.09;;;12.13;100.00
32083;BME280;18597;48.328;7.932;2023-07-31T02:35:01;99567.94;;;12.02;100.00
32083;BME280;18597;48.328;7.932;2023-07-31T02:37:28;99561.00;;;12.09;100.00
32083;BME280;18597;48.328;7.932;2023-07-31T02:39:55;99561.41;;;12.14;100.00
32083;BME280;18597;48.328;7.932;2023-07-31T02:42:20;99551.13;;;12.19;100.00
32083;BME280;18597;48.328;7.932;2023-07-31T02:44:46;99542.41;;;12.17;100.00
32083;BME280;18597;48.328;7.932;2023-07-31T02:47:12;99551.69;;;12.13;100.00
32083;BME280;18597;48.328;7.932;2023-07-31T02:49:38;99558.34;;;12.18;100.00
32083;BME280;18597;48.328;7.932;2023-07-31T02:52:04;99567.91;;;12.21;100.00
32083;BME280;18597;48.328;7.932;2023-07-31T02:54:30;99572.09;;;12.43;100.00
32083;BME280;18597;48.328;7.932;2023-07-31T02:56:56;99574.81;;;12.33;100.00
32083;BME280;18597;48.328;7.932;2023-07-31T02:59:21;99574.91;;;12.32;100.00
32083;BME280;18597;48.328;7.932;2023-07-31T03:01:47;99567.28;;;12.46;100.00
32083;BME280;18597;48.328;7.932;2023-07-31T03:04:13;99565.28;;;12.58;100.00
32083;BME280;18597;48.328;7.932;2023-07-31T03:06:39;99569.84;;;12.48;100.00
32083;BME280;18597;48.328;7.932;2023-07-31T03:09:04;99566.19;;;12.30;100.00
32083;BME280;18597;48.328;7.932;2023-07-31T03:11:30;99571.56;;;12.20;100.00
32083;BME280;18597;48.328;7.932;2023-07-31T03:13:56;99569.25;;;12.44;100.00
32083;BME280;18597;48.328;7.932;2023-07-31T03:16:22;99567.19;;;12.29;100.00
32083;BME280;18597;48.328;7.932;2023-07-31T03:18:48;99559.44;;;12.16;100.00
32083;BME280;18597;48.328;7.932;2023-07-31T03:21:14;99557.84;;;12.42;100.00
32083;BME280;18597;48.328;7.932;2023-07-31T03:23:40;99559.56;;;12.34;100.00
32083;BME280;18597;48.328;7.932;2023-07-31T03:26:07;99557.72;;;12.34;100.00
32083;BME280;18597;48.328;7.932;2023-07-31T03:28:33;99551.09;;;12.38;100.00
32083;BME280;18597;48.328;7.932;2023-07-31T03:30:59;99549.78;;;12.52;100.00
32083;BME280;18597;48.328;7.932;2023-07-31T03:33:25;99549.41;;;12.37;100.00
32083;BME280;18597;48.328;7.932;2023-07-31T03:35:51;99548.81;;;12.43;100.00
32083;BME280;18597;48.328;7.932;2023-07-31T03:38:18;99556.88;;;12.43;100.00
32083;BME280;18597;48.328;7.932;2023-07-31T03:40:44;99559.97;;;12.48;100.00
32083;BME280;18597;48.328;7.932;2023-07-31T03:43:11;99553.91;;;12.37;100.00
32083;BME280;18597;48.328;7.932;2023-07-31T03:45:37;99555.47;;;12.30;100.00
32083;BME280;18597;48.328;7.932;2023-07-31T03:48:04;99558.31;;;12.28;100.00
32083;BME280;18597;48.328;7.932;2023-07-31T03:50:30;99551.69;;;12.32;100.00
32083;BME280;18597;48.328;7.932;2023-07-31T03:52:56;99556.47;;;12.29;100.00
32083;BME280;18597;48.328;7.932;2023-07-31T03:55:21;99554.22;;;12.24;100.00
32083;BME280;18597;48.328;7.932;2023-07-31T03:57:47;99562.84;;;12.18;100.00
32083;BME280;18597;48.328;7.932;2023-07-31T04:00:14;99561.69;;;12.30;100.00
32083;BME280;18597;48.328;7.932;2023-07-31T04:02:40;99563.22;;;12.42;100.00
32083;BME280;18597;48.328;7.932;2023-07-31T04:05:07;99565.78;;;12.34;100.00
32083;BME280;18597;48.328;7.932;2023-07-31T04:07:33;99555.31;;;12.31;100.00
32083;BME280;18597;48.328;7.932;2023-07-31T04:10:00;99558.53;;;12.44;100.00
32083;BME280;18597;48.328;7.932;2023-07-31T04:12:26;99561.78;;;12.48;100.00
32083;BME280;18597;48.328;7.932;2023-07-31T04:14:52;99552.88;;;12.57;100.00
32083;BME280;18597;48.328;7.932;2023-07-31T04:17:18;99553.56;;;12.59;100.00
32083;BME280;18597;48.328;7.932;2023-07-31T04:19:44;99556.31;;;12.87;100.00
32083;BME280;18597;48.328;7.932;2023-07-31T04:22:10;99558.00;;;12.88;100.00
32083;BME280;18597;48.328;7.932;2023-07-31T04:24:35;99567.72;;;12.89;100.00
32083;BME280;18597;48.328;7.932;2023-07-31T04:27:01;99566.81;;;12.98;100.00
32083;BME280;18597;48.328;7.932;2023-07-31T04:29:27;99558.53;;;13.19;100.00
32083;BME280;18597;48.328;7.932;2023-07-31T04:31:53;99557.22;;;13.32;100.00
32083;BME280;18597;48.328;7.932;2023-07-31T04:34:19;99561.53;;;13.43;100.00
32083;BME280;18597;48.328;7.932;2023-07-31T04:36:44;99562.53;;;13.42;100.00
32083;BME280;18597;48.328;7.932;2023-07-31T04:39:10;99551.50;;;13.45;100.00
32083;BME280;18597;48.328;7.932;2023-07-31T04:41:36;99555.63;;;13.57;100.00
32083;BME280;18597;48.328;7.932;2023-07-31T04:44:02;99565.47;;;13.67;100.00
32083;BME280;18597;48.328;7.932;2023-07-31T04:46:29;99556.13;;;13.71;100.00
32083;BME280;18597;48.328;7.932;2023-07-31T04:48:56;99547.06;;;13.72;100.00
32083;BME280;18597;48.328;7.932;2023-07-31T04:51:22;99545.84;;;13.84;100.00
32083;BME280;18597;48.328;7.932;2023-07-31T04:53:49;99547.22;;;13.88;100.00
32083;BME280;18597;48.328;7.932;2023-07-31T04:56:15;99566.78;;;13.98;100.00
32083;BME280;18597;48.328;7.932;2023-07-31T04:58:41;99562.09;;;14.00;100.00
32083;BME280;18597;48.328;7.932;2023-07-31T05:01:07;99568.16;;;14.02;100.00
32083;BME280;18597;48.328;7.932;2023-07-31T05:03:33;99560.78;;;14.04;100.00
32083;BME280;18597;48.328;7.932;2023-07-31T05:05:59;99541.56;;;14.17;100.00
32083;BME280;18597;48.328;7.932;2023-07-31T05:08:25;99554.78;;;14.28;100.00
32083;BME280;18597;48.328;7.932;2023-07-31T05:10:51;99542.25;;;14.37;100.00
32083;BME280;18597;48.328;7.932;2023-07-31T05:13:17;99551.09;;;14.55;100.00
32083;BME280;18597;48.328;7.932;2023-07-31T05:15:42;99555.94;;;14.78;100.00
32083;BME280;18597;48.328;7.932;2023-07-31T05:18:08;99558.44;;;15.05;100.00
32083;BME280;18597;48.328;7.932;2023-07-31T05:20:34;99557.06;;;15.43;100.00
32083;BME280;18597;48.328;7.932;2023-07-31T05:23:00;99550.75;;;15.69;100.00
32083;BME280;18597;48.328;7.932;2023-07-31T05:25:25;99555.66;;;15.90;100.00
32083;BME280;18597;48.328;7.932;2023-07-31T05:27:51;99557.69;;;16.12;100.00
32083;BME280;18597;48.328;7.932;2023-07-31T05:30:17;99552.78;;;16.32;100.00
32083;BME280;18597;48.328;7.932;2023-07-31T05:32:43;99557.47;;;16.54;100.00
32083;BME280;18597;48.328;7.932;2023-07-31T05:35:09;99556.28;;;16.65;100.00
32083;BME280;18597;48.328;7.932;2023-07-31T05:37:35;99556.13;;;16.75;100.00
32083;BME280;18597;48.328;7.932;2023-07-31T05:40:01;99551.09;;;16.72;100.00
32083;BME280;18597;48.328;7.932;2023-07-31T05:42:26;99540.63;;;16.52;100.00
32083;BME280;18597;48.328;7.932;2023-07-31T05:44:52;99544.81;;;16.55;100.00
32083;BME280;18597;48.328;7.932;2023-07-31T05:47:18;99538.44;;;16.72;100.00
32083;BME280;18597;48.328;7.932;2023-07-31T05:49:44;99541.53;;;17.00;100.00
32083;BME280;18597;48.328;7.932;2023-07-31T05:52:10;99536.19;;;17.31;100.00
32083;BME280;18597;48.328;7.932;2023-07-31T05:54:35;99536.03;;;17.56;100.00
32083;BME280;18597;48.328;7.932;2023-07-31T05:57:01;99536.84;;;18.10;100.00
32083;BME280;18597;48.328;7.932;2023-07-31T05:59:27;99527.50;;;18.50;100.00
32083;BME280;18597;48.328;7.932;2023-07-31T06:01:53;99521.00;;;18.89;100.00
32083;BME280;18597;48.328;7.932;2023-07-31T06:04:19;99527.41;;;19.32;100.00
32083;BME280;18597;48.328;7.932;2023-07-31T06:06:44;99529.25;;;19.61;100.00
32083;BME280;18597;48.328;7.932;2023-07-31T06:09:10;99528.72;;;19.94;100.00
32083;BME280;18597;48.328;7.932;2023-07-31T06:11:37;99519.16;;;20.19;99.53
32083;BME280;18597;48.328;7.932;2023-07-31T06:14:03;99511.38;;;20.38;96.73
32083;BME280;18597;48.328;7.932;2023-07-31T06:16:28;99515.94;;;21.35;89.91
32083;BME280;18597;48.328;7.932;2023-07-31T06:18:54;99509.44;;;22.30;70.19
32083;BME280;18597;48.328;7.932;2023-07-31T06:21:20;99488.56;;;24.16;55.26
32083;BME280;18597;48.328;7.932;2023-07-31T06:23:46;99496.50;;;24.49;54.08
32083;BME280;18597;48.328;7.932;2023-07-31T06:26:12;99500.63;;;24.02;53.85
32083;BME280;18597;48.328;7.932;2023-07-31T06:28:37;99484.63;;;24.80;50.85
32083;BME280;18597;48.328;7.932;2023-07-31T06:31:03;99485.50;;;24.74;48.27
32083;BME280;18597;48.328;7.932;2023-07-31T06:33:29;99479.53;;;24.66;48.86
32083;BME280;18597;48.328;7.932;2023-07-31T06:35:55;99488.53;;;23.21;53.25
32083;BME280;18597;48.328;7.932;2023-07-31T06:38:25;99500.84;;;22.26;55.53
32083;BME280;18597;48.328;7.932;2023-07-31T06:40:51;99501.22;;;21.97;58.75
32083;BME280;18597;48.328;7.932;2023-07-31T06:43:17;99503.63;;;21.45;62.94
32083;BME280;18597;48.328;7.932;2023-07-31T06:45:42;99507.78;;;21.35;63.08
32083;BME280;18597;48.328;7.932;2023-07-31T06:48:08;99515.22;;;21.80;61.29
32083;BME280;18597;48.328;7.932;2023-07-31T06:50:34;99512.34;;;22.48;59.10
32083;BME280;18597;48.328;7.932;2023-07-31T06:53:00;99514.00;;;23.40;55.88
32083;BME280;18597;48.328;7.932;2023-07-31T06:55:26;99509.56;;;24.16;52.34
32083;BME280;18597;48.328;7.932;2023-07-31T06:57:54;99501.88;;;24.56;50.43
32083;BME280;18597;48.328;7.932;2023-07-31T07:00:22;99503.63;;;24.69;49.03
32083;BME280;18597;48.328;7.932;2023-07-31T07:02:49;99494.22;;;25.38;47.14
32083;BME280;18597;48.328;7.932;2023-07-31T07:05:16;99491.09;;;25.83;46.27
32083;BME280;18597;48.328;7.932;2023-07-31T07:07:43;99495.22;;;25.43;46.10
32083;BME280;18597;48.328;7.932;2023-07-31T07:10:10;99491.44;;;25.08;46.20
32083;BME280;18597;48.328;7.932;2023-07-31T07:12:36;99498.50;;;24.79;47.55
32083;BME280;18597;48.328;7.932;2023-07-31T07:15:02;99489.97;;;24.50;48.86
32083;BME280;18597;48.328;7.932;2023-07-31T07:17:29;99487.66;;;24.47;48.96
32083;BME280;18597;48.328;7.932;2023-07-31T07:19:57;99477.69;;;24.96;47.49
32083;BME280;18597;48.328;7.932;2023-07-31T07:22:23;99486.06;;;25.20;46.75
32083;BME280;18597;48.328;7.932;2023-07-31T07:24:49;99476.75;;;25.69;44.63
32083;BME280;18597;48.328;7.932;2023-07-31T07:27:15;99485.16;;;25.26;43.34
32083;BME280;18597;48.328;7.932;2023-07-31T07:29:41;99490.00;;;25.24;44.87
32083;BME280;18597;48.328;7.932;2023-07-31T07:32:07;99490.84;;;25.84;43.96
32083;BME280;18597;48.328;7.932;2023-07-31T07:34:33;99493.28;;;25.32;44.09
32083;BME280;18597;48.328;7.932;2023-07-31T07:36:59;99480.53;;;25.98;44.75
32083;BME280;18597;48.328;7.932;2023-07-31T07:39:24;99469.41;;;26.35;42.68
32083;BME280;18597;48.328;7.932;2023-07-31T07:41:50;99462.31;;;25.50;43.60
32083;BME280;18597;48.328;7.932;2023-07-31T07:44:16;99457.25;;;28.92;38.95
32083;BME280;18597;48.328;7.932;2023-07-31T07:46:42;99449.38;;;31.41;34.11
32083;BME280;18597;48.328;7.932;2023-07-31T07:49:08;99445.56;;;31.67;32.97
32083;BME280;18597;48.328;7.932;2023-07-31T07:51:34;99440.88;;;32.49;32.51
32083;BME280;18597;48.328;7.932;2023-07-31T07:54:00;99426.91;;;35.05;28.79
32083;BME280;18597;48.328;7.932;2023-07-31T07:56:27;99426.25;;;37.22;24.89
32083;BME280;18597;48.328;7.932;2023-07-31T07:58:53;99422.53;;;38.53;24.33
32083;BME280;18597;48.328;7.932;2023-07-31T08:01:19;99421.91;;;38.96;23.23
32083;BME280;18597;48.328;7.932;2023-07-31T08:03:46;99416.59;;;40.03;22.20
32083;BME280;18597;48.328;7.932;2023-07-31T08:06:12;99416.19;;;37.85;24.87
32083;BME280;18597;48.328;7.932;2023-07-31T08:08:38;99403.47;;;40.51;22.29
32083;BME280;18597;48.328;7.932;2023-07-31T08:13:30;99402.56;;;42.67;nan
32083;BME280;18597;48.328;7.932;2023-07-31T08:15:56;99401.84;;;40.79;nan
32083;BME280;18597;48.328;7.932;2023-07-31T08:18:22;99409.09;;;38.55;nan
32083;BME280;18597;48.328;7.932;2023-07-31T08:20:48;99397.84;;;38.38;nan
32083;BME280;18597;48.328;7.932;2023-07-31T08:23:14;99395.31;;;38.67;nan
32083;BME280;18597;48.328;7.932;2023-07-31T08:25:40;99406.00;;;38.65;nan
32083;BME280;18597;48.328;7.932;2023-07-31T08:28:06;99402.84;;;37.23;nan
32083;BME280;18597;48.328;7.932;2023-07-31T08:30:33;99397.03;;;33.91;nan
32083;BME280;18597;48.328;7.932;2023-07-31T08:32:59;99389.97;;;32.66;nan
32083;BME280;18597;48.328;7.932;2023-07-31T08:35:26;99382.25;;;32.47;nan
32083;BME280;18597;48.328;7.932;2023-07-31T08:37:54;99389.75;;;34.53;nan
32083;BME280;18597;48.328;7.932;2023-07-31T08:40:20;99392.84;;;34.22;nan
32083;BME280;18597;48.328;7.932;2023-07-31T08:42:50;99383.09;;;32.53;nan
32083;BME280;18597;48.328;7.932;2023-07-31T08:45:18;99370.06;;;31.16;nan
32083;BME280;18597;48.328;7.932;2023-07-31T08:47:47;99375.81;;;30.42;nan
32083;BME280;18597;48.328;7.932;2023-07-31T08:50:15;99385.28;;;29.49;nan
32083;BME280;18597;48.328;7.932;2023-07-31T08:52:42;99373.34;;;29.12;nan
32083;BME280;18597;48.328;7.932;2023-07-31T08:55:08;99374.38;;;29.33;nan
32083;BME280;18597;48.328;7.932;2023-07-31T08:57:37;99375.88;;;29.72;nan
32083;BME280;18597;48.328;7.932;2023-07-31T09:00:05;99363.56;;;29.85;nan
32083;BME280;18597;48.328;7.932;2023-07-31T09:02:38;99365.16;;;30.55;nan
32083;BME280;18597;48.328;7.932;2023-07-31T09:05:07;99359.75;;;30.81;nan
32083;BME280;18597;48.328;7.932;2023-07-31T09:07:35;99370.84;;;30.96;nan
32083;BME280;18597;48.328;7.932;2023-07-31T09:10:03;99366.13;;;33.29;nan
32083;BME280;18597;48.328;7.932;2023-07-31T09:12:29;99359.22;;;35.57;nan
32083;BME280;18597;48.328;7.932;2023-07-31T09:14:56;99348.69;;;35.22;nan
32083;BME280;18597;48.328;7.932;2023-07-31T09:17:32;99333.13;;;32.99;nan
32083;BME280;18597;48.328;7.932;2023-07-31T09:20:17;99334.59;;;30.67;nan
32083;BME280;18597;48.328;7.932;2023-07-31T09:22:44;99343.81;;;29.61;nan
32083;BME280;18597;48.328;7.932;2023-07-31T09:25:20;99328.78;;;29.15;nan
32083;BME280;18597;48.328;7.932;2023-07-31T09:28:00;99325.25;;;28.27;nan
32083;BME280;18597;48.328;7.932;2023-07-31T09:30:26;99313.56;;;26.73;nan
32083;BME280;18597;48.328;7.932;2023-07-31T09:33:04;99318.22;;;25.97;nan
32083;BME280;18597;48.328;7.932;2023-07-31T09:35:34;99336.56;;;27.01;nan
32083;BME280;18597;48.328;7.932;2023-07-31T09:38:06;99327.13;;;27.54;nan
32083;BME280;18597;48.328;7.932;2023-07-31T09:40:35;99326.88;;;27.72;nan
32083;BME280;18597;48.328;7.932;2023-07-31T09:43:04;99313.22;;;28.50;nan
32083;BME280;18597;48.328;7.932;2023-07-31T09:45:35;99325.53;;;28.91;nan
32083;BME280;18597;48.328;7.932;2023-07-31T09:48:02;99321.31;;;29.37;nan
32083;BME280;18597;48.328;7.932;2023-07-31T09:50:29;99313.94;;;28.89;nan
32083;BME280;18597;48.328;7.932;2023-07-31T09:52:55;99296.19;;;28.31;nan
32083;BME280;18597;48.328;7.932;2023-07-31T09:55:21;99287.84;;;28.04;nan
32083;BME280;18597;48.328;7.932;2023-07-31T09:57:48;99277.44;;;27.67;nan
32083;BME280;18597;48.328;7.932;2023-07-31T10:00:17;99287.06;;;26.91;nan
32083;BME280;18597;48.328;7.932;2023-07-31T10:02:46;99269.34;;;26.53;nan
32083;BME280;18597;48.328;7.932;2023-07-31T10:05:14;99269.47;;;26.46;nan
32083;BME280;18597;48.328;7.932;2023-07-31T10:07:49;99279.97;;;26.38;nan
32083;BME280;18597;48.328;7.932;2023-07-31T10:10:16;99265.81;;;26.41;nan
32083;BME280;18597;48.328;7.932;2023-07-31T10:12:46;99269.66;;;26.85;nan
32083;BME280;18597;48.328;7.932;2023-07-31T10:15:15;99270.41;;;27.26;nan
32083;BME280;18597;48.328;7.932;2023-07-31T10:17:41;99277.91;;;28.19;nan
32083;BME280;18597;48.328;7.932;2023-07-31T10:20:07;99280.66;;;29.12;nan
32083;BME280;18597;48.328;7.932;2023-07-31T10:22:34;99279.78;;;29.71;nan
32083;BME280;18597;48.328;7.932;2023-07-31T10:25:01;99273.22;;;29.45;nan
32083;BME280;18597;48.328;7.932;2023-07-31T10:27:28;99269.69;;;29.49;nan
32083;BME280;18597;48.328;7.932;2023-07-31T10:29:56;99270.13;;;29.36;nan
32083;BME280;18597;48.328;7.932;2023-07-31T10:32:24;99271.59;;;29.49;nan
32083;BME280;18597;48.328;7.932;2023-07-31T10:34:51;99276.44;;;29.05;nan
32083;BME280;18597;48.328;7.932;2023-07-31T10:40:06;99263.50;;;29.69;34.69
32083;BME280;18597;48.328;7.932;2023-07-31T10:42:36;99265.84;;;29.88;34.31
32083;BME280;18597;48.328;7.932;2023-07-31T10:45:06;99271.63;;;29.86;33.94
32083;BME280;18597;48.328;7.932;2023-07-31T10:47:47;99277.63;;;29.78;34.39
32083;BME280;18597;48.328;7.932;2023-07-31T10:50:22;99293.78;;;29.37;34.76
32083;BME280;18597;48.328;7.932;2023-07-31T10:52:52;99282.16;;;29.30;34.70
32083;BME280;18597;48.328;7.932;2023-07-31T10:58:10;99279.94;;;28.95;35.60
32083;BME280;18597;48.328;7.932;2023-07-31T11:00:39;99281.88;;;28.99;35.92
32083;BME280;18597;48.328;7.932;2023-07-31T11:03:12;99277.81;;;28.80;36.33
32083;BME280;18597;48.328;7.932;2023-07-31T11:08:36;99280.03;;;27.12;39.00
32083;BME280;18597;48.328;7.932;2023-07-31T11:11:09;99266.44;;;26.88;39.03
32083;BME280;18597;48.328;7.932;2023-07-31T11:13:47;99258.63;;;26.97;39.45
32083;BME280;18597;48.328;7.932;2023-07-31T11:16:21;99248.31;;;27.32;40.06
32083;BME280;18597;48.328;7.932;2023-07-31T11:18:47;99249.41;;;27.15;39.69
32083;BME280;18597;48.328;7.932;2023-07-31T11:21:16;99254.22;;;26.96;39.47
32083;BME280;18597;48.328;7.932;2023-07-31T11:23:50;99246.25;;;27.23;39.45
32083;BME280;18597;48.328;7.932;2023-07-31T11:26:17;99248.41;;;26.35;39.71
32083;BME280;18597;48.328;7.932;2023-07-31T11:28:47;99245.00;;;26.85;40.17
32083;BME280;18597;48.328;7.932;2023-07-31T11:31:13;99244.75;;;27.32;39.66
32083;BME280;18597;48.328;7.932;2023-07-31T11:33:39;99247.06;;;27.74;38.58
32083;BME280;18597;48.328;7.932;2023-07-31T11:36:05;99248.91;;;27.51;39.44
32083;BME280;18597;48.328;7.932;2023-07-31T11:38:33;99237.09;;;27.51;39.54
32083;BME280;18597;48.328;7.932;2023-07-31T11:41:02;99234.56;;;26.99;39.73
32083;BME280;18597;48.328;7.932;2023-07-31T11:43:29;99240.34;;;27.14;41.08
32083;BME280;18597;48.328;7.932;2023-07-31T11:45:58;99239.31;;;27.20;40.71
32083;BME280;18597;48.328;7.932;2023-07-31T11:48:29;99232.59;;;27.11;42.62
32083;BME280;18597;48.328;7.932;2023-07-31T11:50:58;99230.09;;;27.09;42.38
32083;BME280;18597;48.328;7.932;2023-07-31T11:53:51;99224.56;;;27.21;42.76
32083;BME280;18597;48.328;7.932;2023-07-31T11:56:19;99220.25;;;27.64;41.69
32083;BME280;18597;48.328;7.932;2023-07-31T11:58:48;99205.03;;;28.12;40.06
32083;BME280;18597;48.328;7.932;2023-07-31T12:01:16;99205.28;;;28.32;39.33
32083;BME280;18597;48.328;7.932;2023-07-31T12:03:43;99210.91;;;28.42;41.29
32083;BME280;18597;48.328;7.932;2023-07-31T12:06:09;99211.66;;;28.16;44.61
32083;BME280;18597;48.328;7.932;2023-07-31T12:08:36;99209.56;;;27.12;42.27
32083;BME280;18597;48.328;7.932;2023-07-31T12:11:06;99203.00;;;27.47;42.64
32083;BME280;18597;48.328;7.932;2023-07-31T12:13:33;99198.81;;;27.78;41.42
32083;BME280;18597;48.328;7.932;2023-07-31T12:16:02;99190.78;;;28.15;40.18
32083;BME280;18597;48.328;7.932;2023-07-31T12:18:34;99180.81;;;27.87;40.28
32083;BME280;18597;48.328;7.932;2023-07-31T12:21:04;99189.28;;;28.29;40.01
32083;BME280;18597;48.328;7.932;2023-07-31T12:23:32;99187.88;;;28.48;38.50
32083;BME280;18597;48.328;7.932;2023-07-31T12:26:08;99184.63;;;28.08;39.18
32083;BME280;18597;48.328;7.932;2023-07-31T12:31:21;99179.16;;;28.30;39.98
32083;BME280;18597;48.328;7.932;2023-07-31T12:33:50;99184.59;;;28.79;39.16
32083;BME280;18597;48.328;7.932;2023-07-31T12:36:21;99170.69;;;29.22;38.81
32083;BME280;18597;48.328;7.932;2023-07-31T12:38:47;99162.25;;;28.70;38.58
32083;BME280;18597;48.328;7.932;2023-07-31T12:41:13;99172.19;;;28.44;39.48
32083;BME280;18597;48.328;7.932;2023-07-31T12:43:42;99153.19;;;29.39;37.59
32083;BME280;18597;48.328;7.932;2023-07-31T12:46:08;99157.69;;;30.02;36.47
32083;BME280;18597;48.328;7.932;2023-07-31T12:48:35;99158.91;;;30.37;35.82
32083;BME280;18597;48.328;7.932;2023-07-31T12:51:02;99149.03;;;30.46;36.04
32083;BME280;18597;48.328;7.932;2023-07-31T12:53:28;99155.16;;;30.69;35.76
32083;BME280;18597;48.328;7.932;2023-07-31T12:55:55;99152.34;;;30.63;35.51
32083;BME280;18597;48.328;7.932;2023-07-31T12:58:21;99146.53;;;30.50;35.07
32083;BME280;18597;48.328;7.932;2023-07-31T13:00:47;99136.59;;;30.33;34.94
32083;BME280;18597;48.328;7.932;2023-07-31T13:03:13;99133.94;;;29.91;35.78
32083;BME280;18597;48.328;7.932;2023-07-31T13:05:39;99130.19;;;30.13;35.03
32083;BME280;18597;48.328;7.932;2023-07-31T13:08:05;99124.47;;;30.39;35.61
32083;BME280;18597;48.328;7.932;2023-07-31T13:10:30;99111.81;;;30.54;34.48
32083;BME280;18597;48.328;7.932;2023-07-31T13:12:57;99110.47;;;29.73;35.89
32083;BME280;18597;48.328;7.932;2023-07-31T13:15:23;99101.06;;;28.26;37.52
32083;BME280;18597;48.328;7.932;2023-07-31T13:17:49;99096.16;;;28.55;38.22